Time;durP1;ratioP1;P1;durP2;ratioP2;P2;SDS_P1;SDS_P2;PMS_P1;PMS_P2;Temp;Humidity;BMP_temperature;BMP_pressure;BME280_temperature;BME280_humidity;BME280_pressure;Samples;Min_cycle;Max_cycle;Signal;HPM_P1;HPM_P2
2022/11/28 00:00:39;;;;;;;;;3.33;3.33;;;;;11.67;100.00;100879.31;5036856;28;45801;-74
2022/11/28 00:03:04;;;;;;;;;4.00;3.00;;;;;11.69;100.00;100877.53;5034331;28;57658;-72
2022/11/28 00:05:29;;;;;;;;;5.00;4.00;;;;;11.67;100.00;100858.16;5036706;28;50392;-72
2022/11/28 00:07:55;;;;;;;;;3.33;3.33;;;;;11.66;100.00;100864.28;5036192;28;62807;-71
2022/11/28 00:10:21;;;;;;;;;2.00;2.00;;;;;11.68;100.00;100859.91;5035790;28;56279;-73
2022/11/28 00:12:46;;;;;;;;;4.67;3.00;;;;;11.67;100.00;100866.97;5035476;28;45935;-73
2022/11/28 00:15:12;;;;;;;;;5.33;4.00;;;;;11.71;100.00;100859.91;5035604;28;58013;-72
2022/11/28 00:17:37;;;;;;;;;4.00;4.00;;;;;11.71;100.00;100851.97;5052458;28;45498;-76
2022/11/28 00:20:03;;;;;;;;;4.33;2.67;;;;;11.67;100.00;100842.28;5036146;28;65328;-72
2022/11/28 00:22:28;;;;;;;;;3.67;3.67;;;;;11.67;100.00;100843.16;5036685;28;45296;-72
2022/11/28 00:24:54;;;;;;;;;6.00;3.33;;;;;11.68;100.00;100839.63;5036187;28;58099;-73
2022/11/28 00:27:20;;;;;;;;;4.00;4.00;;;;;11.65;100.00;100833.44;5035121;28;45388;-72
2022/11/28 00:29:45;;;;;;;;;3.33;3.33;;;;;11.66;100.00;100832.53;5034937;28;45855;-72
2022/11/28 00:32:11;;;;;;;;;8.67;6.00;;;;;11.67;100.00;100837.00;5036110;28;45419;-76
2022/11/28 00:34:36;;;;;;;;;8.33;4.00;;;;;11.67;100.00;100826.41;5035238;28;45390;-74
2022/11/28 00:37:01;;;;;;;;;6.00;6.00;;;;;11.65;100.00;100822.84;5036123;28;54141;-75
2022/11/28 00:39:27;;;;;;;;;5.00;4.00;;;;;11.67;100.00;100831.69;5036668;28;45731;-74
2022/11/28 00:41:52;;;;;;;;;5.00;4.00;;;;;11.64;100.00;100829.91;5036341;28;45438;-75
2022/11/28 00:44:17;;;;;;;;;5.00;5.00;;;;;11.65;100.00;100826.38;5036212;28;50003;-76
2022/11/28 00:46:43;;;;;;;;;4.00;4.00;;;;;11.65;100.00;100821.09;5035671;28;54837;-76
2022/11/28 00:49:09;;;;;;;;;5.67;4.00;;;;;11.63;100.00;100829.91;5036238;28;47583;-74
2022/11/28 00:51:35;;;;;;;;;4.00;4.00;;;;;11.62;100.00;100825.50;5035527;28;65756;-76
2022/11/28 00:54:02;;;;;;;;;3.67;3.67;;;;;11.61;100.00;100816.69;5035056;28;45592;-74
2022/11/28 00:56:30;;;;;;;;;4.00;4.00;;;;;11.61;100.00;100814.03;5047125;28;45636;-74
2022/11/28 00:58:56;;;;;;;;;4.33;4.33;;;;;11.63;100.00;100814.03;5047377;28;45863;-74
2022/11/28 01:01:31;;;;;;;;;5.67;4.00;;;;;11.64;100.00;100810.50;5050785;28;45783;-74
2022/11/28 01:03:58;;;;;;;;;4.67;4.67;;;;;11.66;100.00;100811.38;5044032;28;45214;-74
2022/11/28 01:06:35;;;;;;;;;7.00;4.00;;;;;11.65;100.00;100812.28;5055666;28;45548;-75
2022/11/28 01:09:03;;;;;;;;;4.00;4.00;;;;;11.66;100.00;100812.28;5037918;28;45449;-75
2022/11/28 01:11:29;;;;;;;;;5.00;5.00;;;;;11.70;100.00;100815.84;5037220;28;45419;-77
2022/11/28 01:13:56;;;;;;;;;4.67;3.67;;;;;11.72;100.00;100819.41;5054582;28;45487;-74
2022/11/28 01:16:21;;;;;;;;;5.00;5.00;;;;;11.71;100.00;100818.47;5055836;28;45610;-76
2022/11/28 01:18:47;;;;;;;;;11.00;5.00;;;;;11.74;100.00;100823.81;5037820;28;45710;-75
2022/11/28 01:21:13;;;;;;;;;4.33;4.33;;;;;11.74;100.00;100817.63;5055188;28;59109;-74
2022/11/28 01:23:38;;;;;;;;;4.00;4.00;;;;;11.75;100.00;100829.97;5055977;28;45625;-74
2022/11/28 01:26:06;;;;;;;;;3.00;3.00;;;;;11.78;100.00;100827.34;5055210;28;59168;-74
2022/11/28 01:28:31;;;;;;;;;9.00;5.00;;;;;11.76;100.00;100822.03;5055353;28;46709;-76
2022/11/28 01:31:02;;;;;;;;;7.33;4.00;;;;;11.77;100.00;100822.91;5037621;28;45558;-76
2022/11/28 01:33:27;;;;;;;;;6.33;5.00;;;;;11.79;100.00;100824.72;5041090;28;45253;-74
2022/11/28 01:35:57;;;;;;;;;4.00;4.00;;;;;11.78;100.00;100824.72;5058899;28;55464;-75
2022/11/28 01:38:23;;;;;;;;;8.33;4.00;;;;;11.81;100.00;100835.28;5059461;28;46061;-74
2022/11/28 01:40:48;;;;;;;;;7.67;5.00;;;;;11.83;100.00;100836.25;5058384;28;45596;-75
2022/11/28 01:43:14;;;;;;;;;4.67;4.67;;;;;11.85;100.00;100842.41;5041291;28;45487;-74
2022/11/28 01:45:40;;;;;;;;;5.67;4.67;;;;;11.85;100.00;100834.47;5059412;28;45963;-72
2022/11/28 01:48:06;;;;;;;;;5.00;5.00;;;;;11.85;100.00;100837.13;5058925;28;45805;-75
2022/11/28 01:50:32;;;;;;;;;4.00;4.00;;;;;11.85;100.00;100834.47;5059175;28;45479;-75
2022/11/28 01:53:06;;;;;;;;;8.67;4.67;;;;;11.86;100.00;100841.53;5041133;28;45376;-74
2022/11/28 01:55:37;;;;;;;;;6.33;3.00;;;;;11.85;100.00;100834.47;5054758;28;45410;-76
2022/11/28 01:58:02;;;;;;;;;5.00;5.00;;;;;11.87;100.00;100834.47;5036973;28;46059;-73
2022/11/28 02:00:28;;;;;;;;;9.00;6.33;;;;;11.87;100.00;100835.34;5059075;28;45470;-74
2022/11/28 02:02:59;;;;;;;;;9.00;4.33;;;;;11.88;100.00;100838.88;5039475;28;54592;-76
2022/11/28 02:05:24;;;;;;;;;5.00;5.00;;;;;11.90;100.00;100843.31;5058665;28;45516;-74
2022/11/28 02:07:50;;;;;;;;;6.67;4.00;;;;;11.90;100.00;100853.91;5023367;28;60717;-74
2022/11/28 02:10:48;;;;;;;;;3.67;3.00;;;;;11.89;100.00;100848.63;5058732;28;46015;-75
2022/11/28 02:13:40;;;;;;;;;4.67;4.67;;;;;11.92;100.00;100852.16;5038462;28;45329;-77
2022/11/28 02:16:48;;;;;;;;;5.00;5.00;;;;;11.92;100.00;100844.22;5058995;28;45258;-74
2022/11/28 02:19:23;;;;;;;;;5.00;5.00;;;;;11.92;100.00;100843.31;5058483;28;46649;-76
2022/11/28 02:21:54;;;;;;;;;7.67;5.00;;;;;11.93;100.00;100831.84;5054590;28;45408;-74
2022/11/28 02:24:53;;;;;;;;;6.33;6.33;;;;;11.95;100.00;100833.66;5040666;28;45451;-74
2022/11/28 02:27:40;;;;;;;;;8.00;5.00;;;;;11.94;100.00;100825.72;5058775;28;45712;-76
2022/11/28 02:30:13;;;;;;;;;7.67;6.33;;;;;11.92;100.00;100823.03;5060365;28;47155;-74
2022/11/28 02:32:45;;;;;;;;;7.33;6.33;;;;;11.89;100.00;100833.63;5040191;28;45321;-73
2022/11/28 02:35:32;;;;;;;;;8.33;7.67;;;;;11.88;100.00;100823.00;5058257;28;45530;-75
2022/11/28 02:38:13;;;;;;;;;6.00;4.67;;;;;11.90;100.00;100827.44;5057451;28;45477;-76
2022/11/28 02:40:45;;;;;;;;;6.67;5.33;;;;;11.89;100.00;100827.44;5057911;28;45509;-76
2022/11/28 02:43:21;;;;;;;;;8.00;5.33;;;;;11.92;100.00;100825.69;5057959;28;45478;-73
2022/11/28 02:45:54;;;;;;;;;6.33;5.33;;;;;11.89;100.00;100816.88;5057900;28;45348;-73
2022/11/28 02:48:38;;;;;;;;;7.67;5.00;;;;;11.92;100.00;100814.22;5035001;28;45606;-75
2022/11/28 02:51:09;;;;;;;;;8.67;6.33;;;;;11.90;100.00;100816.88;5057132;28;46427;-75
2022/11/28 02:53:36;;;;;;;;;6.33;4.33;;;;;11.87;100.00;100814.19;5056845;28;45343;-75
2022/11/28 02:56:02;;;;;;;;;7.67;5.67;;;;;11.84;100.00;100805.38;5054053;28;45590;-75
2022/11/28 02:58:27;;;;;;;;;8.67;5.00;;;;;11.78;100.00;100793.84;5039944;28;45599;-77
2022/11/28 03:00:53;;;;;;;;;8.33;5.33;;;;;11.76;100.00;100785.00;5058092;28;47204;-77
2022/11/28 03:03:36;;;;;;;;;8.00;5.33;;;;;11.73;100.00;100777.06;5056401;28;61058;-75
2022/11/28 03:06:25;;;;;;;;;9.67;5.67;;;;;11.76;100.00;100785.00;5040361;28;45397;-74
2022/11/28 03:09:04;;;;;;;;;8.00;5.33;;;;;11.75;100.00;100774.41;5058276;28;45653;-75
2022/11/28 03:11:42;;;;;;;;;5.33;5.33;;;;;11.75;100.00;100772.66;5057454;28;46160;-76
2022/11/28 03:14:55;;;;;;;;;5.00;5.00;;;;;11.76;100.00;100794.69;5057720;28;45488;-74
2022/11/28 03:17:26;;;;;;;;;6.33;5.00;;;;;11.75;100.00;100799.09;5036165;28;45500;-75
2022/11/28 03:20:10;;;;;;;;;8.67;7.00;;;;;11.75;100.00;100798.22;5040039;28;45641;-74
2022/11/28 03:22:53;;;;;;;;;6.33;4.33;;;;;11.77;100.00;100804.41;5057541;28;45816;-74
2022/11/28 03:25:46;;;;;;;;;9.33;5.67;;;;;11.78;100.00;100798.25;5057717;28;45332;-76
2022/11/28 03:28:18;;;;;;;;;9.00;5.00;;;;;11.80;100.00;100802.66;5040072;28;45355;-75
2022/11/28 03:30:47;;;;;;;;;6.33;5.00;;;;;11.82;100.00;100804.47;5060083;28;45650;-73
2022/11/28 03:33:14;;;;;;;;;5.00;5.00;;;;;11.81;100.00;100800.91;5057655;28;45617;-74
2022/11/28 03:35:46;;;;;;;;;10.67;5.00;;;;;11.84;100.00;100811.56;5039144;28;45366;-77
2022/11/28 03:38:20;;;;;;;;;9.00;7.00;;;;;11.84;100.00;100813.31;5056636;28;45559;-74
2022/11/28 03:40:50;;;;;;;;;5.67;5.67;;;;;11.84;100.00;100808.91;5039028;28;45506;-74
2022/11/28 03:43:19;;;;;;;;;7.33;5.00;;;;;11.87;100.00;100808.03;5051267;28;46773;-74
2022/11/28 03:45:48;;;;;;;;;8.00;6.33;;;;;11.87;100.00;100800.97;5053313;28;45366;-75
2022/11/28 03:48:26;;;;;;;;;5.67;5.00;;;;;11.88;100.00;100802.75;5039732;28;45329;-76
2022/11/28 03:51:09;;;;;;;;;8.67;7.00;;;;;11.91;100.00;100805.41;5039031;28;45452;-74
2022/11/28 03:53:49;;;;;;;;;10.00;6.33;;;;;11.93;100.00;100797.47;5039232;28;46484;-75
2022/11/28 03:56:23;;;;;;;;;9.00;6.33;;;;;11.93;100.00;100793.09;5053692;28;45486;-75
2022/11/28 03:58:55;;;;;;;;;9.67;6.00;;;;;11.97;100.00;100783.38;5057258;28;45423;-75
2022/11/28 04:01:30;;;;;;;;;9.00;5.00;;;;;11.97;100.00;100789.56;5039722;28;45250;-75
2022/11/28 04:04:16;;;;;;;;;4.67;4.67;;;;;12.00;100.00;100786.94;5057729;28;46528;-74
2022/11/28 04:06:45;;;;;;;;;10.00;6.33;;;;;12.01;100.00;100786.06;5038882;28;45599;-74
2022/11/28 04:09:17;;;;;;;;;4.67;4.00;;;;;12.01;100.00;100798.41;5055866;28;45463;-74
2022/11/28 04:11:55;;;;;;;;;12.00;8.00;;;;;12.01;100.00;100790.47;5056710;28;45526;-73
2022/11/28 04:14:28;;;;;;;;;9.67;6.33;;;;;12.00;100.00;100792.22;5038157;28;45878;-76
2022/11/28 04:16:59;;;;;;;;;8.00;6.33;;;;;12.05;100.00;100795.78;5039492;28;45380;-75
2022/11/28 04:19:30;;;;;;;;;7.00;5.00;;;;;12.08;100.00;100802.84;5038745;28;45559;-74
2022/11/28 04:22:08;;;;;;;;;14.67;6.67;;;;;12.11;100.00;100794.03;5039101;28;45537;-76
2022/11/28 04:24:37;;;;;;;;;9.00;7.67;;;;;12.10;100.00;100789.63;5038532;28;45842;-74
2022/11/28 04:27:13;;;;;;;;;10.00;8.00;;;;;12.11;100.00;100789.63;5056804;28;45199;-76
2022/11/28 04:29:43;;;;;;;;;14.33;10.00;;;;;12.10;100.00;100794.91;5051589;28;45455;-74
2022/11/28 04:32:10;;;;;;;;;9.00;8.00;;;;;12.07;100.00;100796.66;5038610;28;45669;-74
2022/11/28 04:34:37;;;;;;;;;8.00;5.67;;;;;12.06;100.00;100799.31;5038441;28;45423;-74
2022/11/28 04:37:05;;;;;;;;;9.00;9.00;;;;;12.05;100.00;100797.53;5037960;28;53483;-74
2022/11/28 04:39:32;;;;;;;;;8.00;8.00;;;;;12.05;100.00;100816.06;5056089;28;47859;-75
2022/11/28 04:42:12;;;;;;;;;10.00;8.00;;;;;12.04;100.00;100812.53;5038324;28;45606;-77
2022/11/28 04:44:47;;;;;;;;;8.33;7.67;;;;;12.05;100.00;100816.06;5035352;28;46808;-77
2022/11/28 04:47:12;;;;;;;;;13.33;8.67;;;;;12.04;100.00;100807.25;5056319;28;45362;-74
2022/11/28 04:49:38;;;;;;;;;7.33;5.00;;;;;12.07;100.00;100811.66;5037481;28;60810;-74
2022/11/28 04:52:09;;;;;;;;;10.00;8.67;;;;;12.09;100.00;100814.28;5037934;28;56347;-72
2022/11/28 04:54:58;;;;;;;;;10.33;6.00;;;;;12.13;100.00;100829.31;5036163;28;46416;-74
2022/11/28 04:57:32;;;;;;;;;8.00;6.67;;;;;12.14;100.00;100809.91;5054952;28;45471;-74
2022/11/28 05:00:00;;;;;;;;;8.33;8.00;;;;;12.13;100.00;100801.09;5054871;28;45360;-75
2022/11/28 05:02:27;;;;;;;;;10.00;7.33;;;;;12.12;100.00;100790.50;5037945;28;45712;-75
2022/11/28 05:04:54;;;;;;;;;7.33;4.00;;;;;12.10;100.00;100793.16;5035952;28;65485;-73
2022/11/28 05:07:20;;;;;;;;;5.00;5.00;;;;;12.06;100.00;100792.25;5037263;28;45421;-74
2022/11/28 05:09:46;;;;;;;;;3.67;3.67;;;;;12.06;100.00;100796.66;5034600;28;45492;-75
2022/11/28 05:12:11;;;;;;;;;9.00;5.67;;;;;12.06;100.00;100784.31;5036965;28;45239;-76
2022/11/28 05:14:36;;;;;;;;;9.67;8.33;;;;;12.05;100.00;100779.91;5037125;28;66216;-72
2022/11/28 05:17:02;;;;;;;;;12.33;8.33;;;;;12.10;100.00;100794.91;5055903;28;45220;-74
2022/11/28 05:19:27;;;;;;;;;11.33;7.33;;;;;12.08;100.00;100792.25;5055320;28;61820;-76
2022/11/28 05:21:52;;;;;;;;;10.67;6.00;;;;;12.12;100.00;100809.03;5055446;28;56060;-75
2022/11/28 05:24:18;;;;;;;;;6.00;5.00;;;;;12.13;100.00;100805.50;5054878;28;69149;-74
2022/11/28 05:26:43;;;;;;;;;10.00;7.33;;;;;12.12;100.00;100795.81;5037119;28;61883;-75
2022/11/28 05:29:08;;;;;;;;;7.33;6.33;;;;;12.12;100.00;100782.56;5054360;28;45486;-74
2022/11/28 05:31:34;;;;;;;;;7.00;5.00;;;;;12.15;100.00;100794.06;5055761;28;45323;-74
2022/11/28 05:33:59;;;;;;;;;5.33;5.33;;;;;12.13;100.00;100784.31;5055121;28;62821;-74
2022/11/28 05:36:25;;;;;;;;;9.67;6.33;;;;;12.15;100.00;100795.81;5055711;28;45434;-74
2022/11/28 05:38:50;;;;;;;;;6.67;5.00;;;;;12.13;100.00;100792.28;5054731;28;56956;-74
2022/11/28 05:41:21;;;;;;;;;11.67;8.33;;;;;12.14;100.00;100796.69;5056151;28;45197;-75
2022/11/28 05:43:46;;;;;;;;;5.33;3.00;;;;;12.12;100.00;100790.50;5055377;28;47972;-75
2022/11/28 05:46:12;;;;;;;;;9.33;4.33;;;;;12.09;100.00;100787.84;5055093;28;63738;-75
2022/11/28 05:48:37;;;;;;;;;6.33;5.33;;;;;12.09;100.00;100790.47;5054930;28;54512;-75
2022/11/28 05:51:05;;;;;;;;;12.00;9.67;;;;;12.05;100.00;100786.97;5055079;28;56261;-74
2022/11/28 05:53:31;;;;;;;;;10.00;6.00;;;;;12.04;100.00;100791.38;5055208;28;45582;-74
2022/11/28 05:55:56;;;;;;;;;9.00;6.67;;;;;12.02;100.00;100790.47;5055185;28;46763;-76
2022/11/28 05:58:22;;;;;;;;;8.00;8.00;;;;;12.02;100.00;100794.88;5054470;28;59953;-75
2022/11/28 06:00:47;;;;;;;;;8.67;8.00;;;;;11.97;100.00;100796.59;5054638;28;58558;-76
2022/11/28 06:03:12;;;;;;;;;6.00;6.00;;;;;11.95;100.00;100799.25;5036716;28;47648;-76
2022/11/28 06:05:42;;;;;;;;;8.00;8.00;;;;;11.97;100.00;100800.13;5037060;28;51691;-74
2022/11/28 06:08:08;;;;;;;;;10.67;5.00;;;;;11.98;100.00;100799.25;5054222;28;45459;-74
2022/11/28 06:10:34;;;;;;;;;14.00;6.33;;;;;11.99;100.00;100802.81;5047683;28;45236;-73
2022/11/28 06:13:01;;;;;;;;;6.67;6.00;;;;;12.01;100.00;100817.81;5053254;28;45946;-73
2022/11/28 06:15:27;;;;;;;;;6.00;6.00;;;;;12.00;100.00;100817.81;5036215;28;45566;-74
2022/11/28 06:17:52;;;;;;;;;8.67;7.33;;;;;12.02;100.00;100823.97;5053762;28;45562;-74
2022/11/28 06:20:17;;;;;;;;;10.00;6.00;;;;;12.03;100.00;100823.97;5056277;28;55862;-75
2022/11/28 06:22:45;;;;;;;;;7.00;5.67;;;;;12.04;100.00;100825.78;5056160;28;46723;-74
2022/11/28 06:25:11;;;;;;;;;7.33;7.33;;;;;12.03;100.00;100823.97;5056971;28;45590;-74
2022/11/28 06:27:36;;;;;;;;;8.00;8.00;;;;;12.04;100.00;100823.13;5057481;28;61135;-74
2022/11/28 06:30:01;;;;;;;;;12.33;8.33;;;;;12.05;100.00;100829.31;5039195;28;45531;-75
2022/11/28 06:32:27;;;;;;;;;9.67;8.33;;;;;12.02;100.00;100826.63;5055539;28;45640;-74
2022/11/28 06:34:52;;;;;;;;;5.00;5.00;;;;;12.03;100.00;100831.03;5049317;28;45437;-76
2022/11/28 06:37:17;;;;;;;;;5.00;5.00;;;;;12.02;100.00;100837.22;5046170;28;59191;-76
2022/11/28 06:39:43;;;;;;;;;10.00;8.00;;;;;12.01;100.00;100838.09;5045989;28;53055;-75
2022/11/28 06:42:08;;;;;;;;;9.00;5.33;;;;;12.01;100.00;100827.50;5055228;28;46847;-76
2022/11/28 06:44:33;;;;;;;;;6.67;5.67;;;;;11.98;100.00;100838.94;5058317;28;45694;-75
2022/11/28 06:46:59;;;;;;;;;10.00;4.00;;;;;11.96;100.00;100843.34;5040066;28;45450;-75
2022/11/28 06:49:24;;;;;;;;;9.00;7.67;;;;;11.96;100.00;100842.47;5058275;28;55884;-75
2022/11/28 06:51:49;;;;;;;;;4.00;4.00;;;;;11.95;100.00;100852.19;5058541;28;47662;-74
2022/11/28 06:54:15;;;;;;;;;6.67;6.00;;;;;11.96;100.00;100855.72;5058006;28;59324;-75
2022/11/28 06:56:40;;;;;;;;;6.67;5.00;;;;;11.93;100.00;100843.34;5053133;28;45522;-77
2022/11/28 06:59:06;;;;;;;;;5.67;5.33;;;;;11.96;100.00;100851.28;5057658;28;45558;-74
2022/11/28 07:01:33;;;;;;;;;6.00;5.00;;;;;11.94;100.00;100847.78;5039286;28;46879;-74
2022/11/28 07:03:58;;;;;;;;;8.00;4.33;;;;;11.95;100.00;100854.81;5230740;22;46030;-73
2022/11/28 07:06:25;;;;;;;;;7.33;5.00;;;;;11.94;100.00;100853.06;5116286;27;46456;-74
2022/11/28 07:08:50;;;;;;;;;6.00;4.00;;;;;11.92;100.00;100865.38;5132284;27;45417;-73
2022/11/28 07:11:21;;;;;;;;;5.00;5.00;;;;;11.93;100.00;100866.25;5109279;27;46523;-74
2022/11/28 07:13:47;;;;;;;;;12.33;9.00;;;;;11.89;100.00;100865.38;5129522;27;45477;-75
2022/11/28 07:16:20;;;;;;;;;9.33;4.00;;;;;11.89;100.00;100868.03;5104491;27;45368;-74
2022/11/28 07:18:45;;;;;;;;;5.67;5.67;;;;;11.84;100.00;100851.22;5118901;27;47044;-75
2022/11/28 07:21:13;;;;;;;;;8.67;5.00;;;;;11.84;100.00;100850.34;5103107;27;46130;-76
2022/11/28 07:23:38;;;;;;;;;9.33;6.33;;;;;11.84;100.00;100861.81;5131581;27;45230;-74
2022/11/28 07:26:04;;;;;;;;;11.33;6.00;;;;;11.84;100.00;100856.53;5117755;27;64811;-76
2022/11/28 07:28:30;;;;;;;;;8.67;6.33;;;;;11.81;100.00;100856.47;5127619;27;45406;-76
2022/11/28 07:31:01;;;;;;;;;8.00;5.67;;;;;11.83;100.00;100849.47;5130774;27;45751;-75
2022/11/28 07:33:27;;;;;;;;;11.00;6.67;;;;;11.83;100.00;100853.88;5129095;27;45523;-76
2022/11/28 07:35:52;;;;;;;;;15.33;7.33;;;;;11.79;100.00;100853.81;5126135;27;46014;-74
2022/11/28 07:38:17;;;;;;;;;6.33;5.00;;;;;11.83;100.00;100861.81;5127415;27;60202;-74
2022/11/28 07:40:43;;;;;;;;;7.67;5.00;;;;;11.82;100.00;100876.78;5130417;27;71345;-73
2022/11/28 07:43:09;;;;;;;;;8.67;5.00;;;;;11.77;100.00;100859.94;5119459;27;66002;-75
2022/11/28 07:45:38;;;;;;;;;7.33;6.33;;;;;11.74;100.00;100859.94;5130176;27;45508;-76
2022/11/28 07:48:03;;;;;;;;;7.00;4.00;;;;;11.71;100.00;100863.44;5134845;27;45645;-76
2022/11/28 07:50:28;;;;;;;;;6.33;4.33;;;;;11.66;100.00;100866.94;5123915;27;46806;-76
2022/11/28 07:52:54;;;;;;;;;5.00;5.00;;;;;11.63;100.00;100870.47;5116927;27;45274;-76
2022/11/28 07:55:19;;;;;;;;;5.00;3.00;;;;;11.62;100.00;100871.34;5124179;27;45749;-77
2022/11/28 07:57:44;;;;;;;;;7.33;3.67;;;;;11.59;100.00;100863.38;5128021;27;57941;-76
2022/11/28 08:00:10;;;;;;;;;6.33;4.00;;;;;11.59;100.00;100876.59;5125440;27;51068;-76
2022/11/28 08:02:37;;;;;;;;;5.00;3.33;;;;;11.58;100.00;100873.94;5123196;27;45539;-76
2022/11/28 08:05:03;;;;;;;;;3.00;3.00;;;;;11.61;100.00;100877.50;5131515;27;45499;-76
2022/11/28 08:07:28;;;;;;;;;4.00;4.00;;;;;11.58;100.00;100880.13;5119284;27;45458;-76
2022/11/28 08:09:53;;;;;;;;;5.00;3.00;;;;;11.57;100.00;100891.56;5127656;27;47324;-77
2022/11/28 08:12:19;;;;;;;;;3.00;3.00;;;;;11.51;100.00;100886.25;5101114;27;55960;-76
2022/11/28 08:14:44;;;;;;;;;8.67;4.33;;;;;11.51;100.00;100891.53;5115448;27;45496;-78
2022/11/28 08:17:09;;;;;;;;;9.00;5.00;;;;;11.49;100.00;100894.13;5099934;27;45900;-76
2022/11/28 08:19:35;;;;;;;;;5.00;4.00;;;;;11.55;100.00;100898.59;5124079;27;63586;-76
2022/11/28 08:22:00;;;;;;;;;7.00;4.33;;;;;11.58;100.00;100895.97;5128031;27;57673;-74
2022/11/28 08:24:26;;;;;;;;;8.00;4.67;;;;;11.63;100.00;100902.19;5130461;27;62331;-74
2022/11/28 08:26:51;;;;;;;;;5.33;4.33;;;;;11.65;100.00;100894.25;5124368;27;45564;-77
2022/11/28 08:29:16;;;;;;;;;7.33;4.00;;;;;11.68;100.00;100894.31;5132601;27;61712;-77
2022/11/28 08:31:42;;;;;;;;;5.33;5.00;;;;;11.71;100.00;100903.13;5116688;27;64056;-77
2022/11/28 08:34:08;;;;;;;;;9.00;4.67;;;;;11.76;100.00;100895.22;5129007;27;45445;-79
2022/11/28 08:36:34;;;;;;;;;6.33;4.33;;;;;11.80;100.00;100897.03;5125883;27;45429;-77
2022/11/28 08:39:00;;;;;;;;;6.00;4.00;;;;;11.84;100.00;100900.63;5108297;27;46650;-77
2022/11/28 08:41:25;;;;;;;;;9.00;5.00;;;;;11.85;100.00;100889.16;5113813;27;45527;-77
2022/11/28 08:43:51;;;;;;;;;9.00;4.33;;;;;11.88;100.00;100892.72;5117473;27;46261;-76
2022/11/28 08:46:19;;;;;;;;;6.00;4.67;;;;;11.88;100.00;100898.00;5122757;27;45695;-77
2022/11/28 08:48:46;;;;;;;;;11.00;6.33;;;;;11.87;100.00;100896.22;5113842;27;46480;-76
2022/11/28 08:51:15;;;;;;;;;7.33;3.33;;;;;11.89;100.00;100893.59;5107921;27;45431;-76
2022/11/28 08:53:41;;;;;;;;;5.00;4.00;;;;;11.89;100.00;100904.19;5115940;27;45559;-77
2022/11/28 08:56:07;;;;;;;;;5.67;4.00;;;;;11.89;100.00;100902.41;5103713;27;45535;-76
2022/11/28 08:58:32;;;;;;;;;7.33;4.33;;;;;11.91;100.00;100903.31;5123265;27;47480;-76
2022/11/28 09:00:57;;;;;;;;;2.00;2.00;;;;;11.93;100.00;100895.38;5130073;27;62507;-79
2022/11/28 09:03:23;;;;;;;;;3.33;3.00;;;;;11.92;100.00;100886.53;5123696;27;57331;-76
2022/11/28 09:05:48;;;;;;;;;7.00;4.00;;;;;11.95;100.00;100886.56;5113651;27;45548;-76
2022/11/28 09:08:19;;;;;;;;;2.67;2.00;;;;;12.02;100.00;100888.38;5134282;27;45645;-76
2022/11/28 09:10:45;;;;;;;;;9.00;3.00;;;;;12.06;100.00;100889.28;5118961;27;46954;-76
2022/11/28 09:13:12;;;;;;;;;5.67;4.00;;;;;12.11;100.00;100892.84;5125426;27;45559;-76
2022/11/28 09:15:39;;;;;;;;;5.67;4.33;;;;;12.15;100.00;100888.47;5114735;27;45562;-76
2022/11/28 09:18:05;;;;;;;;;7.00;4.67;;;;;12.19;100.00;100891.09;5116205;27;46017;-76
2022/11/28 09:20:30;;;;;;;;;5.67;4.00;;;;;12.23;100.00;100889.38;5133404;27;45297;-77
2022/11/28 09:22:55;;;;;;;;;5.00;5.00;;;;;12.23;100.00;100886.72;5133502;27;45891;-77
2022/11/28 09:25:21;;;;;;;;;2.67;2.67;;;;;12.27;100.00;100894.69;5116301;27;59488;-77
2022/11/28 09:27:46;;;;;;;;;5.33;3.00;;;;;12.30;100.00;100899.09;5131500;27;46818;-77
2022/11/28 09:30:12;;;;;;;;;7.33;5.67;;;;;12.30;100.00;100893.81;5132848;27;46388;-76
2022/11/28 09:32:37;;;;;;;;;5.00;3.00;;;;;12.35;100.00;100902.66;5124644;27;45620;-77
2022/11/28 09:35:03;;;;;;;;;6.00;4.00;;;;;12.38;100.00;100904.47;5119396;27;48023;-77
2022/11/28 09:37:29;;;;;;;;;6.00;3.00;;;;;12.38;100.00;100900.03;5126060;27;46005;-78
2022/11/28 09:39:54;;;;;;;;;8.67;4.00;;;;;12.39;100.00;100899.16;5132253;27;60864;-77
2022/11/28 09:42:42;;;;;;;;;6.67;3.67;;;;;12.40;100.00;100903.56;5111832;27;45447;-77
2022/11/28 09:45:20;;;;;;;;;6.00;3.00;;;;;12.38;100.00;100905.34;5143257;27;45670;-76
2022/11/28 09:47:49;;;;;;;;;5.00;4.00;;;;;12.37;100.00;100908.88;5107120;27;46105;-76
2022/11/28 09:50:20;;;;;;;;;9.67;3.67;;;;;12.35;100.00;100904.44;5135820;27;45455;-76
2022/11/28 09:52:57;;;;;;;;;4.67;2.33;;;;;12.36;100.00;100898.25;5119101;27;45360;-76
2022/11/28 09:55:46;;;;;;;;;4.33;4.33;;;;;12.39;100.00;100903.56;5132044;27;45533;-76
2022/11/28 09:58:23;;;;;;;;;6.00;3.00;;;;;12.42;100.00;100898.31;5104888;27;47030;-76
2022/11/28 10:00:55;;;;;;;;;3.33;2.00;;;;;12.41;100.00;100900.06;5125970;27;45607;-76
2022/11/28 10:03:54;;;;;;;;;9.67;3.00;;;;;12.43;100.00;100900.06;5133127;27;45527;-75
2022/11/28 10:06:33;;;;;;;;;2.33;2.00;;;;;12.45;100.00;100912.44;5139066;27;45452;-76
2022/11/28 10:09:34;;;;;;;;;5.33;3.00;;;;;12.45;100.00;100895.66;5144308;27;46303;-76
2022/11/28 10:12:23;;;;;;;;;6.33;2.67;;;;;12.44;100.00;100897.41;5079453;27;45583;-76
2022/11/28 10:15:08;;;;;;;;;3.00;3.00;;;;;12.42;100.00;100898.31;5132716;27;45557;-76
2022/11/28 10:18:03;;;;;;;;;4.67;3.33;;;;;12.39;100.00;100895.63;5108125;27;45449;-77
2022/11/28 10:20:36;;;;;;;;;3.00;3.00;;;;;12.37;100.00;100900.03;5121252;27;46577;-76
2022/11/28 10:23:15;;;;;;;;;7.33;4.00;;;;;12.35;100.00;100907.97;5156362;27;45503;-76
2022/11/28 10:25:52;;;;;;;;;2.67;2.67;;;;;12.32;100.00;100910.59;5118577;27;45341;-76
2022/11/28 10:28:31;;;;;;;;;7.67;3.00;;;;;12.30;100.00;100918.56;5114236;27;45382;-75
2022/11/28 10:31:03;;;;;;;;;5.00;3.33;;;;;12.28;100.00;100912.34;5119167;27;46585;-75
2022/11/28 10:33:35;;;;;;;;;3.67;2.00;;;;;12.28;100.00;100916.75;5119821;27;45526;-75
2022/11/28 10:36:01;;;;;;;;;1.33;1.00;;;;;12.28;100.00;100912.34;5112522;27;45514;-76
2022/11/28 10:38:28;;;;;;;;;4.67;2.00;;;;;12.26;100.00;100892.06;5129988;27;45694;-76
2022/11/28 10:41:12;;;;;;;;;4.00;2.33;;;;;12.27;100.00;100901.75;5121680;27;45604;-75
2022/11/28 10:43:43;;;;;;;;;5.33;2.33;;;;;12.30;100.00;100894.72;5127674;27;45600;-75
2022/11/28 10:46:28;;;;;;;;;4.00;2.00;;;;;12.32;100.00;100895.59;5130473;27;45550;-75
2022/11/28 10:49:21;;;;;;;;;1.33;1.33;;;;;12.36;100.00;100892.97;5135992;27;45379;-77
2022/11/28 10:51:58;;;;;;;;;3.67;2.00;;;;;12.36;100.00;100887.66;5125961;27;46167;-76
2022/11/28 10:54:38;;;;;;;;;3.00;2.00;;;;;12.42;100.00;100898.31;5133071;27;45389;-77
2022/11/28 10:57:30;;;;;;;;;4.00;1.00;;;;;12.41;100.00;100892.13;5117376;27;45375;-76
2022/11/28 11:00:05;;;;;;;;;7.67;2.33;;;;;12.46;100.00;100900.94;5113518;27;45524;-74
2022/11/28 11:02:50;;;;;;;;;3.00;2.00;;;;;12.49;100.00;100902.75;5127043;27;46091;-77
2022/11/28 11:05:19;;;;;;;;;4.00;0.33;;;;;12.50;100.00;100892.16;5112722;27;45443;-74
2022/11/28 11:07:50;;;;;;;;;1.00;1.00;;;;;12.54;100.00;100893.06;5117644;27;45644;-75
2022/11/28 11:10:18;;;;;;;;;3.00;1.33;;;;;12.57;100.00;100891.31;5139226;27;46377;-74
2022/11/28 11:12:45;;;;;;;;;2.67;1.00;;;;;12.59;100.00;100900.13;5135442;27;46577;-73
2022/11/28 11:15:15;;;;;;;;;4.67;2.00;;;;;12.63;100.00;100905.47;5120181;27;45331;-74
2022/11/28 11:17:40;;;;;;;;;4.00;1.00;;;;;12.68;100.00;100915.19;5122016;27;46082;-75
2022/11/28 11:20:38;;;;;;;;;2.00;1.00;;;;;12.78;100.00;100911.69;5133924;27;57153;-74
2022/11/28 11:23:24;;;;;;;;;2.00;1.00;;;;;12.87;100.00;100912.59;5084631;27;46155;-73
2022/11/28 11:25:54;;;;;;;;;2.00;1.00;;;;;12.89;100.00;100909.06;5118423;27;45546;-76
2022/11/28 11:28:28;;;;;;;;;1.67;1.00;;;;;12.91;100.00;100904.66;5097016;27;45542;-76
2022/11/28 11:31:01;;;;;;;;;1.00;1.00;;;;;13.01;100.00;100908.22;5102271;27;45373;-78